sensor_id;sensor_type;location;lat;lon;timestamp;P1;durP1;ratioP1;P2;durP2;ratioP2
5841;SDS011;2947;52.276;9.946;2022-07-23T00:01:23;10.50;;;7.45;;
5841;SDS011;2947;52.276;9.946;2022-07-23T00:03:49;13.05;;;8.73;;
5841;SDS011;2947;52.276;9.946;2022-07-23T00:06:17;17.55;;;9.27;;
5841;SDS011;2947;52.276;9.946;2022-07-23T00:08:43;18.73;;;9.45;;
5841;SDS011;2947;52.276;9.946;2022-07-23T00:11:09;20.33;;;9.75;;
5841;SDS011;2947;52.276;9.946;2022-07-23T00:13:35;12.88;;;8.70;;
5841;SDS011;2947;52.276;9.946;2022-07-23T00:16:01;15.70;;;9.23;;
5841;SDS011;2947;52.276;9.946;2022-07-23T00:18:27;16.63;;;9.40;;
5841;SDS011;2947;52.276;9.946;2022-07-23T00:20:53;14.60;;;9.77;;
5841;SDS011;2947;52.276;9.946;2022-07-23T00:23:18;17.88;;;8.55;;
5841;SDS011;2947;52.276;9.946;2022-07-23T00:25:44;14.80;;;8.52;;
5841;SDS011;2947;52.276;9.946;2022-07-23T00:28:10;15.30;;;9.20;;
5841;SDS011;2947;52.276;9.946;2022-07-23T00:30:36;15.77;;;9.02;;
5841;SDS011;2947;52.276;9.946;2022-07-23T00:33:03;17.48;;;8.57;;
5841;SDS011;2947;52.276;9.946;2022-07-23T00:35:35;13.52;;;7.78;;
5841;SDS011;2947;52.276;9.946;2022-07-23T00:38:05;15.80;;;8.23;;
5841;SDS011;2947;52.276;9.946;2022-07-23T00:40:34;13.75;;;8.27;;
5841;SDS011;2947;52.276;9.946;2022-07-23T00:43:01;14.30;;;8.40;;
5841;SDS011;2947;52.276;9.946;2022-07-23T00:45:27;15.85;;;8.10;;
5841;SDS011;2947;52.276;9.946;2022-07-23T00:47:55;13.68;;;9.52;;
5841;SDS011;2947;52.276;9.946;2022-07-23T00:50:21;12.73;;;8.52;;
5841;SDS011;2947;52.276;9.946;2022-07-23T00:52:47;12.70;;;8.43;;
5841;SDS011;2947;52.276;9.946;2022-07-23T00:55:14;14.30;;;8.90;;
5841;SDS011;2947;52.276;9.946;2022-07-23T00:57:40;24.02;;;8.73;;
5841;SDS011;2947;52.276;9.946;2022-07-23T01:00:08;11.43;;;8.80;;
5841;SDS011;2947;52.276;9.946;2022-07-23T01:02:37;14.98;;;9.18;;
5841;SDS011;2947;52.276;9.946;2022-07-23T01:05:04;16.13;;;9.13;;
5841;SDS011;2947;52.276;9.946;2022-07-23T01:07:30;16.38;;;8.75;;
5841;SDS011;2947;52.276;9.946;2022-07-23T01:09:56;15.57;;;9.88;;
5841;SDS011;2947;52.276;9.946;2022-07-23T01:12:22;15.57;;;9.70;;
5841;SDS011;2947;52.276;9.946;2022-07-23T01:14:55;14.13;;;10.25;;
5841;SDS011;2947;52.276;9.946;2022-07-23T01:17:22;12.15;;;8.98;;
5841;SDS011;2947;52.276;9.946;2022-07-23T01:19:48;17.33;;;9.73;;
5841;SDS011;2947;52.276;9.946;2022-07-23T01:22:14;12.95;;;9.27;;
5841;SDS011;2947;52.276;9.946;2022-07-23T01:24:43;15.80;;;9.10;;
5841;SDS011;2947;52.276;9.946;2022-07-23T01:27:08;20.23;;;9.27;;
5841;SDS011;2947;52.276;9.946;2022-07-23T01:29:34;15.27;;;9.05;;
5841;SDS011;2947;52.276;9.946;2022-07-23T01:32:00;11.73;;;8.93;;
5841;SDS011;2947;52.276;9.946;2022-07-23T01:34:26;17.13;;;10.35;;
5841;SDS011;2947;52.276;9.946;2022-07-23T01:36:51;10.90;;;9.05;;
5841;SDS011;2947;52.276;9.946;2022-07-23T01:39:17;16.42;;;10.70;;
5841;SDS011;2947;52.276;9.946;2022-07-23T01:41:43;12.73;;;10.07;;
5841;SDS011;2947;52.276;9.946;2022-07-23T01:44:09;16.17;;;10.30;;
5841;SDS011;2947;52.276;9.946;2022-07-23T01:46:34;17.30;;;11.52;;
5841;SDS011;2947;52.276;9.946;2022-07-23T01:49:00;17.63;;;10.55;;
5841;SDS011;2947;52.276;9.946;2022-07-23T01:51:26;13.48;;;10.88;;
5841;SDS011;2947;52.276;9.946;2022-07-23T01:53:51;13.23;;;10.00;;
5841;SDS011;2947;52.276;9.946;2022-07-23T01:56:17;14.38;;;9.82;;
5841;SDS011;2947;52.276;9.946;2022-07-23T01:58:45;15.00;;;10.23;;
5841;SDS011;2947;52.276;9.946;2022-07-23T02:01:12;14.82;;;9.63;;
5841;SDS011;2947;52.276;9.946;2022-07-23T02:03:38;17.33;;;10.68;;
5841;SDS011;2947;52.276;9.946;2022-07-23T02:06:04;17.45;;;10.05;;
5841;SDS011;2947;52.276;9.946;2022-07-23T02:08:30;22.50;;;10.43;;
5841;SDS011;2947;52.276;9.946;2022-07-23T02:10:55;15.88;;;9.75;;
5841;SDS011;2947;52.276;9.946;2022-07-23T02:13:21;14.93;;;9.80;;
5841;SDS011;2947;52.276;9.946;2022-07-23T02:15:47;11.70;;;8.88;;
5841;SDS011;2947;52.276;9.946;2022-07-23T02:18:13;15.52;;;10.52;;
5841;SDS011;2947;52.276;9.946;2022-07-23T02:20:39;15.18;;;10.30;;
5841;SDS011;2947;52.276;9.946;2022-07-23T02:23:05;17.35;;;9.73;;
5841;SDS011;2947;52.276;9.946;2022-07-23T02:25:31;13.68;;;9.10;;
5841;SDS011;2947;52.276;9.946;2022-07-23T02:27:58;16.75;;;10.10;;
5841;SDS011;2947;52.276;9.946;2022-07-23T02:30:24;16.10;;;9.40;;
5841;SDS011;2947;52.276;9.946;2022-07-23T02:32:50;13.98;;;10.57;;
5841;SDS011;2947;52.276;9.946;2022-07-23T02:35:15;13.95;;;9.38;;
5841;SDS011;2947;52.276;9.946;2022-07-23T02:37:41;14.27;;;9.77;;
5841;SDS011;2947;52.276;9.946;2022-07-23T02:40:07;13.80;;;9.52;;
5841;SDS011;2947;52.276;9.946;2022-07-23T02:42:33;14.95;;;9.75;;
5841;SDS011;2947;52.276;9.946;2022-07-23T02:44:59;13.98;;;10.35;;
5841;SDS011;2947;52.276;9.946;2022-07-23T02:47:25;15.02;;;9.73;;
5841;SDS011;2947;52.276;9.946;2022-07-23T02:49:50;14.35;;;9.80;;
5841;SDS011;2947;52.276;9.946;2022-07-23T02:52:16;13.73;;;10.13;;
5841;SDS011;2947;52.276;9.946;2022-07-23T02:54:42;13.50;;;9.50;;
5841;SDS011;2947;52.276;9.946;2022-07-23T02:57:07;13.48;;;8.85;;
5841;SDS011;2947;52.276;9.946;2022-07-23T02:59:33;12.93;;;9.23;;
5841;SDS011;2947;52.276;9.946;2022-07-23T03:01:59;17.02;;;10.20;;
5841;SDS011;2947;52.276;9.946;2022-07-23T03:04:24;12.95;;;9.63;;
5841;SDS011;2947;52.276;9.946;2022-07-23T03:06:50;16.10;;;10.32;;
5841;SDS011;2947;52.276;9.946;2022-07-23T03:09:16;12.35;;;9.40;;
5841;SDS011;2947;52.276;9.946;2022-07-23T03:11:41;14.05;;;9.38;;
5841;SDS011;2947;52.276;9.946;2022-07-23T03:14:07;16.23;;;9.02;;
5841;SDS011;2947;52.276;9.946;2022-07-23T03:16:33;14.98;;;8.88;;
5841;SDS011;2947;52.276;9.946;2022-07-23T03:18:58;13.50;;;9.25;;
5841;SDS011;2947;52.276;9.946;2022-07-23T03:21:24;12.73;;;9.68;;
5841;SDS011;2947;52.276;9.946;2022-07-23T03:23:50;20.15;;;9.57;;
5841;SDS011;2947;52.276;9.946;2022-07-23T03:26:16;14.07;;;8.77;;
5841;SDS011;2947;52.276;9.946;2022-07-23T03:28:41;16.45;;;10.00;;
5841;SDS011;2947;52.276;9.946;2022-07-23T03:31:07;13.98;;;9.25;;
5841;SDS011;2947;52.276;9.946;2022-07-23T03:33:33;15.30;;;9.80;;
5841;SDS011;2947;52.276;9.946;2022-07-23T03:35:59;11.60;;;9.15;;
5841;SDS011;2947;52.276;9.946;2022-07-23T03:38:25;16.88;;;9.20;;
5841;SDS011;2947;52.276;9.946;2022-07-23T03:40:51;14.50;;;9.35;;
5841;SDS011;2947;52.276;9.946;2022-07-23T03:43:16;13.05;;;9.93;;
5841;SDS011;2947;52.276;9.946;2022-07-23T03:45:42;13.02;;;9.55;;
5841;SDS011;2947;52.276;9.946;2022-07-23T03:48:08;15.90;;;11.00;;
5841;SDS011;2947;52.276;9.946;2022-07-23T03:50:33;16.60;;;9.63;;
5841;SDS011;2947;52.276;9.946;2022-07-23T03:52:59;14.98;;;10.52;;
5841;SDS011;2947;52.276;9.946;2022-07-23T03:55:25;14.50;;;9.88;;
5841;SDS011;2947;52.276;9.946;2022-07-23T03:57:51;15.35;;;10.07;;
5841;SDS011;2947;52.276;9.946;2022-07-23T04:00:16;13.43;;;10.30;;
5841;SDS011;2947;52.276;9.946;2022-07-23T04:02:42;22.10;;;10.70;;
5841;SDS011;2947;52.276;9.946;2022-07-23T04:05:08;11.68;;;9.02;;
5841;SDS011;2947;52.276;9.946;2022-07-23T04:07:34;19.02;;;10.73;;
5841;SDS011;2947;52.276;9.946;2022-07-23T04:10:00;13.98;;;10.30;;
5841;SDS011;2947;52.276;9.946;2022-07-23T04:12:26;13.55;;;10.45;;
5841;SDS011;2947;52.276;9.946;2022-07-23T04:14:51;14.50;;;9.82;;
5841;SDS011;2947;52.276;9.946;2022-07-23T04:17:17;15.32;;;9.75;;
5841;SDS011;2947;52.276;9.946;2022-07-23T04:19:43;11.48;;;9.50;;
5841;SDS011;2947;52.276;9.946;2022-07-23T04:22:11;13.88;;;9.65;;
5841;SDS011;2947;52.276;9.946;2022-07-23T04:24:38;15.52;;;9.23;;
5841;SDS011;2947;52.276;9.946;2022-07-23T04:27:04;13.50;;;9.50;;
5841;SDS011;2947;52.276;9.946;2022-07-23T04:29:30;23.38;;;10.80;;
5841;SDS011;2947;52.276;9.946;2022-07-23T04:31:56;13.07;;;9.30;;
5841;SDS011;2947;52.276;9.946;2022-07-23T04:34:21;13.88;;;10.30;;
5841;SDS011;2947;52.276;9.946;2022-07-23T04:36:47;13.52;;;9.68;;
5841;SDS011;2947;52.276;9.946;2022-07-23T04:39:13;16.40;;;9.95;;
5841;SDS011;2947;52.276;9.946;2022-07-23T04:41:39;15.25;;;9.57;;
5841;SDS011;2947;52.276;9.946;2022-07-23T04:44:05;19.75;;;9.25;;
5841;SDS011;2947;52.276;9.946;2022-07-23T04:46:31;14.55;;;9.30;;
5841;SDS011;2947;52.276;9.946;2022-07-23T04:48:57;16.15;;;9.75;;
5841;SDS011;2947;52.276;9.946;2022-07-23T04:51:22;13.57;;;8.55;;
5841;SDS011;2947;52.276;9.946;2022-07-23T04:53:48;16.40;;;8.95;;
5841;SDS011;2947;52.276;9.946;2022-07-23T04:56:14;12.02;;;9.18;;
5841;SDS011;2947;52.276;9.946;2022-07-23T04:58:40;16.08;;;9.70;;
5841;SDS011;2947;52.276;9.946;2022-07-23T05:01:06;24.15;;;10.13;;
5841;SDS011;2947;52.276;9.946;2022-07-23T05:03:32;15.85;;;9.52;;
5841;SDS011;2947;52.276;9.946;2022-07-23T05:05:58;14.65;;;9.73;;
5841;SDS011;2947;52.276;9.946;2022-07-23T05:08:24;20.25;;;9.55;;
5841;SDS011;2947;52.276;9.946;2022-07-23T05:10:49;15.07;;;9.30;;
5841;SDS011;2947;52.276;9.946;2022-07-23T05:13:15;16.38;;;8.48;;
5841;SDS011;2947;52.276;9.946;2022-07-23T05:15:42;13.50;;;8.82;;
5841;SDS011;2947;52.276;9.946;2022-07-23T05:18:08;14.68;;;9.30;;
5841;SDS011;2947;52.276;9.946;2022-07-23T05:20:34;13.63;;;9.05;;
5841;SDS011;2947;52.276;9.946;2022-07-23T05:23:00;14.63;;;9.63;;
5841;SDS011;2947;52.276;9.946;2022-07-23T05:25:26;17.35;;;9.65;;
5841;SDS011;2947;52.276;9.946;2022-07-23T05:27:52;17.38;;;9.10;;
5841;SDS011;2947;52.276;9.946;2022-07-23T05:30:18;16.73;;;9.38;;
5841;SDS011;2947;52.276;9.946;2022-07-23T05:32:44;19.38;;;9.70;;
5841;SDS011;2947;52.276;9.946;2022-07-23T05:35:09;16.55;;;10.10;;
5841;SDS011;2947;52.276;9.946;2022-07-23T05:37:36;11.77;;;9.32;;
5841;SDS011;2947;52.276;9.946;2022-07-23T05:40:04;13.73;;;10.55;;
5841;SDS011;2947;52.276;9.946;2022-07-23T05:42:34;13.18;;;9.27;;
5841;SDS011;2947;52.276;9.946;2022-07-23T05:45:00;18.02;;;10.32;;
5841;SDS011;2947;52.276;9.946;2022-07-23T05:47:26;13.93;;;9.18;;
5841;SDS011;2947;52.276;9.946;2022-07-23T05:49:52;15.20;;;9.40;;
5841;SDS011;2947;52.276;9.946;2022-07-23T05:52:18;13.00;;;9.45;;
5841;SDS011;2947;52.276;9.946;2022-07-23T05:54:43;15.75;;;9.73;;
5841;SDS011;2947;52.276;9.946;2022-07-23T05:57:09;22.33;;;9.90;;
5841;SDS011;2947;52.276;9.946;2022-07-23T05:59:35;14.43;;;10.13;;
5841;SDS011;2947;52.276;9.946;2022-07-23T06:02:01;16.80;;;10.40;;
5841;SDS011;2947;52.276;9.946;2022-07-23T06:04:27;16.83;;;9.02;;
5841;SDS011;2947;52.276;9.946;2022-07-23T06:06:52;14.43;;;9.55;;
5841;SDS011;2947;52.276;9.946;2022-07-23T06:09:18;17.67;;;9.10;;
5841;SDS011;2947;52.276;9.946;2022-07-23T06:11:44;19.88;;;9.45;;
5841;SDS011;2947;52.276;9.946;2022-07-23T06:14:09;16.83;;;8.90;;
5841;SDS011;2947;52.276;9.946;2022-07-23T06:16:35;12.25;;;8.27;;
5841;SDS011;2947;52.276;9.946;2022-07-23T06:19:01;19.10;;;8.25;;
5841;SDS011;2947;52.276;9.946;2022-07-23T06:21:27;8.40;;;7.30;;
5841;SDS011;2947;52.276;9.946;2022-07-23T06:23:53;12.80;;;7.78;;
5841;SDS011;2947;52.276;9.946;2022-07-23T06:26:19;11.70;;;7.10;;
5841;SDS011;2947;52.276;9.946;2022-07-23T06:28:45;14.02;;;8.35;;
5841;SDS011;2947;52.276;9.946;2022-07-23T06:31:10;12.10;;;7.68;;
5841;SDS011;2947;52.276;9.946;2022-07-23T06:33:36;10.32;;;6.65;;
5841;SDS011;2947;52.276;9.946;2022-07-23T06:36:02;13.00;;;6.15;;
5841;SDS011;2947;52.276;9.946;2022-07-23T06:38:28;12.02;;;5.82;;
5841;SDS011;2947;52.276;9.946;2022-07-23T06:40:53;9.35;;;5.10;;
5841;SDS011;2947;52.276;9.946;2022-07-23T06:43:19;11.23;;;5.00;;
5841;SDS011;2947;52.276;9.946;2022-07-23T06:45:45;8.43;;;5.05;;
5841;SDS011;2947;52.276;9.946;2022-07-23T06:48:11;12.93;;;5.13;;
5841;SDS011;2947;52.276;9.946;2022-07-23T06:50:36;10.48;;;5.57;;
5841;SDS011;2947;52.276;9.946;2022-07-23T06:53:02;9.65;;;5.53;;
5841;SDS011;2947;52.276;9.946;2022-07-23T06:55:28;12.40;;;4.93;;
5841;SDS011;2947;52.276;9.946;2022-07-23T06:57:54;8.23;;;4.78;;
5841;SDS011;2947;52.276;9.946;2022-07-23T07:00:19;12.23;;;5.15;;
5841;SDS011;2947;52.276;9.946;2022-07-23T07:02:45;8.82;;;5.32;;
5841;SDS011;2947;52.276;9.946;2022-07-23T07:05:11;9.05;;;5.78;;
5841;SDS011;2947;52.276;9.946;2022-07-23T07:07:36;13.55;;;5.68;;
5841;SDS011;2947;52.276;9.946;2022-07-23T07:10:02;13.50;;;6.93;;
5841;SDS011;2947;52.276;9.946;2022-07-23T07:12:29;11.07;;;5.78;;
5841;SDS011;2947;52.276;9.946;2022-07-23T07:14:55;12.77;;;5.05;;
5841;SDS011;2947;52.276;9.946;2022-07-23T07:17:21;11.70;;;4.82;;
5841;SDS011;2947;52.276;9.946;2022-07-23T07:19:47;9.38;;;4.38;;
5841;SDS011;2947;52.276;9.946;2022-07-23T07:22:13;6.80;;;4.30;;
5841;SDS011;2947;52.276;9.946;2022-07-23T07:24:38;6.85;;;3.80;;
5841;SDS011;2947;52.276;9.946;2022-07-23T07:27:04;9.52;;;4.18;;
5841;SDS011;2947;52.276;9.946;2022-07-23T07:29:30;6.97;;;3.50;;
5841;SDS011;2947;52.276;9.946;2022-07-23T07:31:56;6.40;;;3.60;;
5841;SDS011;2947;52.276;9.946;2022-07-23T07:34:22;9.18;;;3.63;;
5841;SDS011;2947;52.276;9.946;2022-07-23T07:36:47;4.43;;;3.30;;
5841;SDS011;2947;52.276;9.946;2022-07-23T07:39:14;6.65;;;3.28;;
5841;SDS011;2947;52.276;9.946;2022-07-23T07:41:40;7.45;;;3.22;;
5841;SDS011;2947;52.276;9.946;2022-07-23T07:44:06;4.55;;;2.88;;
5841;SDS011;2947;52.276;9.946;2022-07-23T07:46:32;9.23;;;3.05;;
5841;SDS011;2947;52.276;9.946;2022-07-23T07:48:58;3.95;;;2.83;;
5841;SDS011;2947;52.276;9.946;2022-07-23T07:51:23;10.05;;;3.80;;
5841;SDS011;2947;52.276;9.946;2022-07-23T07:53:49;10.15;;;3.28;;
5841;SDS011;2947;52.276;9.946;2022-07-23T07:56:15;7.57;;;3.10;;
5841;SDS011;2947;52.276;9.946;2022-07-23T07:58:40;7.35;;;3.15;;
5841;SDS011;2947;52.276;9.946;2022-07-23T08:01:06;6.28;;;3.13;;
5841;SDS011;2947;52.276;9.946;2022-07-23T08:03:32;5.00;;;2.67;;
5841;SDS011;2947;52.276;9.946;2022-07-23T08:05:57;4.15;;;2.28;;
5841;SDS011;2947;52.276;9.946;2022-07-23T08:08:23;9.48;;;2.55;;
5841;SDS011;2947;52.276;9.946;2022-07-23T08:10:49;4.70;;;2.53;;
5841;SDS011;2947;52.276;9.946;2022-07-23T08:13:15;6.65;;;3.33;;
5841;SDS011;2947;52.276;9.946;2022-07-23T08:15:42;5.63;;;3.60;;
5841;SDS011;2947;52.276;9.946;2022-07-23T08:18:09;4.38;;;2.70;;
5841;SDS011;2947;52.276;9.946;2022-07-23T08:20:35;4.18;;;2.70;;
5841;SDS011;2947;52.276;9.946;2022-07-23T08:23:04;5.93;;;3.20;;
5841;SDS011;2947;52.276;9.946;2022-07-23T08:25:40;6.32;;;3.20;;
5841;SDS011;2947;52.276;9.946;2022-07-23T08:28:08;4.90;;;3.35;;
5841;SDS011;2947;52.276;9.946;2022-07-23T08:30:36;4.47;;;2.70;;
5841;SDS011;2947;52.276;9.946;2022-07-23T08:33:04;6.55;;;3.80;;
5841;SDS011;2947;52.276;9.946;2022-07-23T08:35:39;5.57;;;2.97;;
5841;SDS011;2947;52.276;9.946;2022-07-23T08:38:09;6.45;;;3.25;;
5841;SDS011;2947;52.276;9.946;2022-07-23T08:40:36;5.65;;;2.80;;
5841;SDS011;2947;52.276;9.946;2022-07-23T08:43:06;3.28;;;2.05;;
5841;SDS011;2947;52.276;9.946;2022-07-23T08:45:41;5.00;;;2.35;;
5841;SDS011;2947;52.276;9.946;2022-07-23T08:48:19;3.47;;;1.65;;
5841;SDS011;2947;52.276;9.946;2022-07-23T08:50:48;4.32;;;2.08;;
5841;SDS011;2947;52.276;9.946;2022-07-23T08:53:19;2.40;;;1.92;;
5841;SDS011;2947;52.276;9.946;2022-07-23T08:55:48;9.05;;;4.75;;
5841;SDS011;2947;52.276;9.946;2022-07-23T08:58:16;4.00;;;2.20;;
5841;SDS011;2947;52.276;9.946;2022-07-23T09:00:42;5.68;;;3.33;;
5841;SDS011;2947;52.276;9.946;2022-07-23T09:03:16;4.25;;;3.03;;
5841;SDS011;2947;52.276;9.946;2022-07-23T09:05:51;7.18;;;3.83;;
5841;SDS011;2947;52.276;9.946;2022-07-23T09:08:18;5.47;;;2.83;;
5841;SDS011;2947;52.276;9.946;2022-07-23T09:15:59;5.50;;;2.40;;
5841;SDS011;2947;52.276;9.946;2022-07-23T09:21:12;6.25;;;2.33;;
5841;SDS011;2947;52.276;9.946;2022-07-23T09:26:19;5.20;;;2.33;;
5841;SDS011;2947;52.276;9.946;2022-07-23T09:29:23;5.60;;;2.53;;
5841;SDS011;2947;52.276;9.946;2022-07-23T09:34:30;6.80;;;2.38;;
5841;SDS011;2947;52.276;9.946;2022-07-23T09:37:11;8.00;;;1.85;;
5841;SDS011;2947;52.276;9.946;2022-07-23T09:39:39;3.97;;;1.67;;
5841;SDS011;2947;52.276;9.946;2022-07-23T09:42:13;5.60;;;1.70;;
5841;SDS011;2947;52.276;9.946;2022-07-23T09:44:44;4.30;;;2.15;;
5841;SDS011;2947;52.276;9.946;2022-07-23T09:47:14;2.95;;;1.60;;
5841;SDS011;2947;52.276;9.946;2022-07-23T09:49:40;4.47;;;2.17;;
5841;SDS011;2947;52.276;9.946;2022-07-23T09:52:33;4.40;;;2.33;;
5841;SDS011;2947;52.276;9.946;2022-07-23T09:55:08;6.75;;;2.00;;
5841;SDS011;2947;52.276;9.946;2022-07-23T09:57:34;5.70;;;2.20;;
5841;SDS011;2947;52.276;9.946;2022-07-23T10:00:00;3.00;;;2.05;;
5841;SDS011;2947;52.276;9.946;2022-07-23T10:02:31;6.85;;;2.30;;
5841;SDS011;2947;52.276;9.946;2022-07-23T10:04:58;3.75;;;1.70;;
5841;SDS011;2947;52.276;9.946;2022-07-23T10:07:26;2.13;;;1.88;;
5841;SDS011;2947;52.276;9.946;2022-07-23T10:09:55;5.72;;;1.98;;
5841;SDS011;2947;52.276;9.946;2022-07-23T10:12:22;2.05;;;1.70;;
5841;SDS011;2947;52.276;9.946;2022-07-23T10:14:53;4.30;;;2.50;;
5841;SDS011;2947;52.276;9.946;2022-07-23T10:17:21;5.82;;;1.63;;
5841;SDS011;2947;52.276;9.946;2022-07-23T10:19:47;4.00;;;1.80;;
5841;SDS011;2947;52.276;9.946;2022-07-23T10:22:14;3.85;;;2.05;;
5841;SDS011;2947;52.276;9.946;2022-07-23T10:30:45;7.45;;;1.35;;
5841;SDS011;2947;52.276;9.946;2022-07-23T10:36:27;4.25;;;2.00;;
5841;SDS011;2947;52.276;9.946;2022-07-23T10:39:05;5.90;;;1.58;;
5841;SDS011;2947;52.276;9.946;2022-07-23T10:41:45;3.10;;;1.67;;
5841;SDS011;2947;52.276;9.946;2022-07-23T10:46:57;3.08;;;1.70;;
5841;SDS011;2947;52.276;9.946;2022-07-23T10:49:33;5.78;;;1.75;;
5841;SDS011;2947;52.276;9.946;2022-07-23T10:54:49;3.17;;;1.13;;
5841;SDS011;2947;52.276;9.946;2022-07-23T10:57:17;4.88;;;1.80;;
5841;SDS011;2947;52.276;9.946;2022-07-23T11:02:32;4.95;;;2.00;;
5841;SDS011;2947;52.276;9.946;2022-07-23T11:04:59;2.80;;;1.48;;
5841;SDS011;2947;52.276;9.946;2022-07-23T11:07:35;3.42;;;1.63;;
5841;SDS011;2947;52.276;9.946;2022-07-23T11:10:03;2.30;;;1.88;;
5841;SDS011;2947;52.276;9.946;2022-07-23T11:25:10;5.97;;;1.90;;
5841;SDS011;2947;52.276;9.946;2022-07-23T11:27:55;3.05;;;1.83;;
5841;SDS011;2947;52.276;9.946;2022-07-23T11:30:38;6.45;;;1.20;;
5841;SDS011;2947;52.276;9.946;2022-07-23T11:35:33;4.03;;;1.55;;
5841;SDS011;2947;52.276;9.946;2022-07-23T11:38:05;4.05;;;1.90;;
5841;SDS011;2947;52.276;9.946;2022-07-23T11:40:52;4.93;;;1.77;;
5841;SDS011;2947;52.276;9.946;2022-07-23T11:43:20;3.08;;;1.60;;
5841;SDS011;2947;52.276;9.946;2022-07-23T11:45:50;2.10;;;1.48;;
5841;SDS011;2947;52.276;9.946;2022-07-23T11:48:25;4.13;;;1.70;;
5841;SDS011;2947;52.276;9.946;2022-07-23T11:50:54;8.63;;;1.75;;
5841;SDS011;2947;52.276;9.946;2022-07-23T11:53:24;3.17;;;1.13;;
5841;SDS011;2947;52.276;9.946;2022-07-23T11:55:54;1.92;;;1.50;;
5841;SDS011;2947;52.276;9.946;2022-07-23T11:58:30;3.33;;;1.50;;
5841;SDS011;2947;52.276;9.946;2022-07-23T12:00:56;2.45;;;1.33;;
5841;SDS011;2947;52.276;9.946;2022-07-23T12:03:22;2.17;;;1.27;;
5841;SDS011;2947;52.276;9.946;2022-07-23T12:05:47;1.63;;;1.08;;
5841;SDS011;2947;52.276;9.946;2022-07-23T12:08:15;2.13;;;1.13;;
5841;SDS011;2947;52.276;9.946;2022-07-23T12:10:42;3.63;;;1.58;;
5841;SDS011;2947;52.276;9.946;2022-07-23T12:15:44;3.15;;;1.10;;
5841;SDS011;2947;52.276;9.946;2022-07-23T12:18:14;2.50;;;1.20;;
5841;SDS011;2947;52.276;9.946;2022-07-23T12:20:46;2.17;;;0.90;;
5841;SDS011;2947;52.276;9.946;2022-07-23T12:23:17;2.85;;;1.70;;
5841;SDS011;2947;52.276;9.946;2022-07-23T12:25:44;3.17;;;1.30;;
5841;SDS011;2947;52.276;9.946;2022-07-23T12:30:44;2.00;;;1.00;;
5841;SDS011;2947;52.276;9.946;2022-07-23T12:33:21;2.35;;;1.00;;
5841;SDS011;2947;52.276;9.946;2022-07-23T12:35:55;4.10;;;1.25;;
5841;SDS011;2947;52.276;9.946;2022-07-23T12:38:24;2.55;;;1.05;;
5841;SDS011;2947;52.276;9.946;2022-07-23T12:40:58;3.72;;;1.20;;
5841;SDS011;2947;52.276;9.946;2022-07-23T12:43:31;2.33;;;1.30;;
5841;SDS011;2947;52.276;9.946;2022-07-23T12:46:07;3.30;;;1.27;;
5841;SDS011;2947;52.276;9.946;2022-07-23T12:48:37;2.42;;;1.48;;
5841;SDS011;2947;52.276;9.946;2022-07-23T12:51:05;3.97;;;1.10;;
5841;SDS011;2947;52.276;9.946;2022-07-23T12:56:12;5.78;;;1.30;;
5841;SDS011;2947;52.276;9.946;2022-07-23T12:58:40;10.80;;;1.20;;
5841;SDS011;2947;52.276;9.946;2022-07-23T13:01:26;4.85;;;1.27;;
5841;SDS011;2947;52.276;9.946;2022-07-23T13:04:00;1.70;;;1.05;;
5841;SDS011;2947;52.276;9.946;2022-07-23T13:09:08;2.13;;;1.10;;
5841;SDS011;2947;52.276;9.946;2022-07-23T13:11:38;1.73;;;0.90;;
5841;SDS011;2947;52.276;9.946;2022-07-23T13:14:04;2.35;;;0.85;;
5841;SDS011;2947;52.276;9.946;2022-07-23T13:16:30;3.40;;;0.98;;
5841;SDS011;2947;52.276;9.946;2022-07-23T13:18:57;6.03;;;1.20;;
5841;SDS011;2947;52.276;9.946;2022-07-23T13:21:28;2.90;;;1.45;;
5841;SDS011;2947;52.276;9.946;2022-07-23T13:23:54;3.20;;;0.90;;
5841;SDS011;2947;52.276;9.946;2022-07-23T13:26:21;4.70;;;0.90;;
5841;SDS011;2947;52.276;9.946;2022-07-23T13:28:47;3.45;;;1.13;;
5841;SDS011;2947;52.276;9.946;2022-07-23T13:31:13;1.52;;;0.93;;
5841;SDS011;2947;52.276;9.946;2022-07-23T13:33:39;2.08;;;1.10;;
5841;SDS011;2947;52.276;9.946;2022-07-23T13:36:05;1.40;;;0.95;;
5841;SDS011;2947;52.276;9.946;2022-07-23T13:38:31;2.53;;;0.90;;
5841;SDS011;2947;52.276;9.946;2022-07-23T13:40:57;3.15;;;1.40;;
5841;SDS011;2947;52.276;9.946;2022-07-23T13:43:23;1.10;;;0.88;;
5841;SDS011;2947;52.276;9.946;2022-07-23T13:45:50;2.20;;;0.80;;
5841;SDS011;2947;52.276;9.946;2022-07-23T13:48:17;3.13;;;0.70;;
5841;SDS011;2947;52.276;9.946;2022-07-23T13:50:44;2.40;;;1.00;;
5841;SDS011;2947;52.276;9.946;2022-07-23T13:53:12;2.50;;;1.10;;
5841;SDS011;2947;52.276;9.946;2022-07-23T13:55:41;2.10;;;1.02;;
5841;SDS011;2947;52.276;9.946;2022-07-23T13:58:07;3.33;;;0.80;;
5841;SDS011;2947;52.276;9.946;2022-07-23T14:00:35;2.28;;;0.80;;
5841;SDS011;2947;52.276;9.946;2022-07-23T14:03:04;4.18;;;1.00;;
5841;SDS011;2947;52.276;9.946;2022-07-23T14:05:31;3.67;;;1.20;;
5841;SDS011;2947;52.276;9.946;2022-07-23T14:07:57;2.22;;;1.80;;
5841;SDS011;2947;52.276;9.946;2022-07-23T14:10:23;1.98;;;1.27;;
5841;SDS011;2947;52.276;9.946;2022-07-23T14:12:50;3.85;;;0.95;;
5841;SDS011;2947;52.276;9.946;2022-07-23T14:15:24;3.25;;;0.70;;
5841;SDS011;2947;52.276;9.946;2022-07-23T14:17:52;4.43;;;0.80;;
5841;SDS011;2947;52.276;9.946;2022-07-23T14:20:19;2.95;;;1.48;;
5841;SDS011;2947;52.276;9.946;2022-07-23T14:22:45;2.28;;;1.17;;
5841;SDS011;2947;52.276;9.946;2022-07-23T14:25:11;1.00;;;0.60;;
5841;SDS011;2947;52.276;9.946;2022-07-23T14:27:38;3.35;;;1.13;;
5841;SDS011;2947;52.276;9.946;2022-07-23T14:30:05;1.80;;;0.80;;
5841;SDS011;2947;52.276;9.946;2022-07-23T14:32:32;3.28;;;1.20;;
5841;SDS011;2947;52.276;9.946;2022-07-23T14:34:59;2.58;;;1.13;;
5841;SDS011;2947;52.276;9.946;2022-07-23T14:37:24;2.70;;;0.80;;
5841;SDS011;2947;52.276;9.946;2022-07-23T14:39:50;1.92;;;0.80;;
5841;SDS011;2947;52.276;9.946;2022-07-23T14:42:16;5.18;;;1.20;;
5841;SDS011;2947;52.276;9.946;2022-07-23T14:44:42;3.85;;;0.70;;
5841;SDS011;2947;52.276;9.946;2022-07-23T14:47:08;1.67;;;0.80;;
5841;SDS011;2947;52.276;9.946;2022-07-23T14:49:34;1.10;;;0.85;;
5841;SDS011;2947;52.276;9.946;2022-07-23T14:52:01;3.60;;;1.15;;
5841;SDS011;2947;52.276;9.946;2022-07-23T14:54:28;2.15;;;0.50;;
5841;SDS011;2947;52.276;9.946;2022-07-23T14:56:54;2.33;;;0.80;;
5841;SDS011;2947;52.276;9.946;2022-07-23T14:59:22;2.95;;;1.10;;
5841;SDS011;2947;52.276;9.946;2022-07-23T15:01:49;2.28;;;0.70;;
5841;SDS011;2947;52.276;9.946;2022-07-23T15:04:15;2.75;;;0.85;;
5841;SDS011;2947;52.276;9.946;2022-07-23T15:06:41;1.33;;;0.82;;
5841;SDS011;2947;52.276;9.946;2022-07-23T15:09:07;1.92;;;0.80;;
5841;SDS011;2947;52.276;9.946;2022-07-23T15:11:33;2.22;;;0.70;;
5841;SDS011;2947;52.276;9.946;2022-07-23T15:14:00;2.17;;;1.00;;
5841;SDS011;2947;52.276;9.946;2022-07-23T15:16:26;1.27;;;0.68;;
5841;SDS011;2947;52.276;9.946;2022-07-23T15:18:52;1.67;;;1.00;;
5841;SDS011;2947;52.276;9.946;2022-07-23T15:21:18;5.10;;;1.30;;
5841;SDS011;2947;52.276;9.946;2022-07-23T15:23:44;3.53;;;0.70;;
5841;SDS011;2947;52.276;9.946;2022-07-23T15:26:10;15.07;;;1.00;;
5841;SDS011;2947;52.276;9.946;2022-07-23T15:28:37;1.45;;;0.80;;
5841;SDS011;2947;52.276;9.946;2022-07-23T15:31:03;1.27;;;0.73;;
5841;SDS011;2947;52.276;9.946;2022-07-23T15:33:29;1.23;;;0.75;;
5841;SDS011;2947;52.276;9.946;2022-07-23T15:35:55;1.65;;;0.90;;
5841;SDS011;2947;52.276;9.946;2022-07-23T15:38:22;3.30;;;1.13;;
5841;SDS011;2947;52.276;9.946;2022-07-23T15:40:48;2.63;;;0.98;;
5841;SDS011;2947;52.276;9.946;2022-07-23T15:43:14;3.45;;;0.80;;
5841;SDS011;2947;52.276;9.946;2022-07-23T15:45:39;1.45;;;0.80;;
5841;SDS011;2947;52.276;9.946;2022-07-23T15:48:06;1.63;;;0.90;;
5841;SDS011;2947;52.276;9.946;2022-07-23T15:50:32;3.08;;;0.90;;
5841;SDS011;2947;52.276;9.946;2022-07-23T15:52:58;1.67;;;0.90;;
5841;SDS011;2947;52.276;9.946;2022-07-23T15:55:24;1.50;;;0.80;;
5841;SDS011;2947;52.276;9.946;2022-07-23T15:57:50;3.10;;;0.82;;
5841;SDS011;2947;52.276;9.946;2022-07-23T16:00:16;1.92;;;0.75;;
5841;SDS011;2947;52.276;9.946;2022-07-23T16:02:42;1.25;;;0.90;;
5841;SDS011;2947;52.276;9.946;2022-07-23T16:05:08;1.65;;;0.70;;